sensor_id;sensor_type;location;lat;lon;timestamp;P1;durP1;ratioP1;P2;durP2;ratioP2
31836;SDS011;18401;49.344;6.240;2023-06-14T00:01:32;8.85;;;4.43;;
31836;SDS011;18401;49.344;6.240;2023-06-14T00:03:59;7.00;;;4.13;;
31836;SDS011;18401;49.344;6.240;2023-06-14T00:06:26;5.28;;;3.85;;
31836;SDS011;18401;49.344;6.240;2023-06-14T00:08:53;5.72;;;3.92;;
31836;SDS011;18401;49.344;6.240;2023-06-14T00:11:19;9.95;;;4.20;;
31836;SDS011;18401;49.344;6.240;2023-06-14T00:13:45;6.13;;;3.45;;
31836;SDS011;18401;49.344;6.240;2023-06-14T00:16:11;9.43;;;3.70;;
31836;SDS011;18401;49.344;6.240;2023-06-14T00:18:37;5.85;;;4.00;;
31836;SDS011;18401;49.344;6.240;2023-06-14T00:21:03;5.90;;;3.58;;
31836;SDS011;18401;49.344;6.240;2023-06-14T00:23:29;12.18;;;4.30;;
31836;SDS011;18401;49.344;6.240;2023-06-14T00:25:55;5.47;;;3.70;;
31836;SDS011;18401;49.344;6.240;2023-06-14T00:28:21;5.72;;;3.80;;
31836;SDS011;18401;49.344;6.240;2023-06-14T00:30:46;5.55;;;3.90;;
31836;SDS011;18401;49.344;6.240;2023-06-14T00:33:12;7.35;;;4.40;;
31836;SDS011;18401;49.344;6.240;2023-06-14T00:35:38;8.20;;;4.18;;
31836;SDS011;18401;49.344;6.240;2023-06-14T00:38:04;7.75;;;4.43;;
31836;SDS011;18401;49.344;6.240;2023-06-14T00:40:30;8.68;;;4.45;;
31836;SDS011;18401;49.344;6.240;2023-06-14T00:42:55;8.57;;;4.15;;
31836;SDS011;18401;49.344;6.240;2023-06-14T00:45:21;7.78;;;4.22;;
31836;SDS011;18401;49.344;6.240;2023-06-14T00:47:47;6.80;;;4.10;;
31836;SDS011;18401;49.344;6.240;2023-06-14T00:50:16;5.70;;;4.35;;
31836;SDS011;18401;49.344;6.240;2023-06-14T00:52:41;6.80;;;4.75;;
31836;SDS011;18401;49.344;6.240;2023-06-14T00:55:07;5.47;;;4.28;;
31836;SDS011;18401;49.344;6.240;2023-06-14T00:57:33;5.32;;;3.90;;
31836;SDS011;18401;49.344;6.240;2023-06-14T01:00:02;6.40;;;4.05;;
31836;SDS011;18401;49.344;6.240;2023-06-14T01:02:33;6.00;;;4.10;;
31836;SDS011;18401;49.344;6.240;2023-06-14T01:04:59;5.57;;;4.07;;
31836;SDS011;18401;49.344;6.240;2023-06-14T01:13:21;5.83;;;4.13;;
31836;SDS011;18401;49.344;6.240;2023-06-14T01:15:52;8.90;;;4.65;;
31836;SDS011;18401;49.344;6.240;2023-06-14T01:18:21;6.40;;;4.45;;
31836;SDS011;18401;49.344;6.240;2023-06-14T01:20:49;6.85;;;4.32;;
31836;SDS011;18401;49.344;6.240;2023-06-14T01:23:18;7.70;;;4.15;;
31836;SDS011;18401;49.344;6.240;2023-06-14T01:25:45;5.18;;;3.95;;
31836;SDS011;18401;49.344;6.240;2023-06-14T01:28:12;6.40;;;4.72;;
31836;SDS011;18401;49.344;6.240;2023-06-14T01:30:41;6.15;;;4.38;;
31836;SDS011;18401;49.344;6.240;2023-06-14T01:33:13;9.13;;;4.50;;
31836;SDS011;18401;49.344;6.240;2023-06-14T01:35:42;8.43;;;4.35;;
31836;SDS011;18401;49.344;6.240;2023-06-14T01:38:08;6.60;;;4.70;;
31836;SDS011;18401;49.344;6.240;2023-06-14T01:40:35;7.13;;;4.30;;
31836;SDS011;18401;49.344;6.240;2023-06-14T01:43:01;11.68;;;5.22;;
31836;SDS011;18401;49.344;6.240;2023-06-14T01:45:28;5.40;;;4.45;;
31836;SDS011;18401;49.344;6.240;2023-06-14T01:47:54;7.05;;;4.50;;
31836;SDS011;18401;49.344;6.240;2023-06-14T01:50:20;7.00;;;4.75;;
31836;SDS011;18401;49.344;6.240;2023-06-14T01:52:46;6.70;;;4.63;;
31836;SDS011;18401;49.344;6.240;2023-06-14T01:55:12;8.32;;;4.82;;
31836;SDS011;18401;49.344;6.240;2023-06-14T01:57:38;8.07;;;4.53;;
31836;SDS011;18401;49.344;6.240;2023-06-14T02:00:04;15.68;;;4.50;;
31836;SDS011;18401;49.344;6.240;2023-06-14T02:02:33;8.75;;;4.50;;
31836;SDS011;18401;49.344;6.240;2023-06-14T02:04:58;7.32;;;5.13;;
31836;SDS011;18401;49.344;6.240;2023-06-14T02:07:24;10.05;;;4.97;;
31836;SDS011;18401;49.344;6.240;2023-06-14T02:09:50;6.97;;;5.03;;
31836;SDS011;18401;49.344;6.240;2023-06-14T02:12:16;9.57;;;4.95;;
31836;SDS011;18401;49.344;6.240;2023-06-14T02:14:41;10.30;;;4.80;;
31836;SDS011;18401;49.344;6.240;2023-06-14T02:17:07;6.13;;;4.90;;
31836;SDS011;18401;49.344;6.240;2023-06-14T02:19:33;7.13;;;4.70;;
31836;SDS011;18401;49.344;6.240;2023-06-14T02:21:58;9.25;;;4.68;;
31836;SDS011;18401;49.344;6.240;2023-06-14T02:24:24;8.60;;;5.20;;
31836;SDS011;18401;49.344;6.240;2023-06-14T02:26:50;8.02;;;4.60;;
31836;SDS011;18401;49.344;6.240;2023-06-14T02:29:16;7.32;;;4.50;;
31836;SDS011;18401;49.344;6.240;2023-06-14T02:31:41;6.70;;;4.75;;
31836;SDS011;18401;49.344;6.240;2023-06-14T02:34:07;11.13;;;4.78;;
31836;SDS011;18401;49.344;6.240;2023-06-14T02:36:36;7.45;;;4.68;;
31836;SDS011;18401;49.344;6.240;2023-06-14T02:39:06;7.32;;;4.80;;
31836;SDS011;18401;49.344;6.240;2023-06-14T02:41:34;8.88;;;4.55;;
31836;SDS011;18401;49.344;6.240;2023-06-14T02:44:00;6.75;;;4.68;;
31836;SDS011;18401;49.344;6.240;2023-06-14T02:46:25;7.97;;;4.60;;
31836;SDS011;18401;49.344;6.240;2023-06-14T02:48:51;7.03;;;4.60;;
31836;SDS011;18401;49.344;6.240;2023-06-14T02:51:17;8.70;;;5.32;;
31836;SDS011;18401;49.344;6.240;2023-06-14T02:53:42;6.63;;;4.72;;
31836;SDS011;18401;49.344;6.240;2023-06-14T02:56:08;6.90;;;4.85;;
31836;SDS011;18401;49.344;6.240;2023-06-14T02:58:36;10.60;;;5.25;;
31836;SDS011;18401;49.344;6.240;2023-06-14T03:01:02;6.68;;;5.03;;
31836;SDS011;18401;49.344;6.240;2023-06-14T03:03:28;9.13;;;4.75;;
31836;SDS011;18401;49.344;6.240;2023-06-14T03:05:53;9.80;;;5.32;;
31836;SDS011;18401;49.344;6.240;2023-06-14T03:08:19;7.22;;;5.28;;
31836;SDS011;18401;49.344;6.240;2023-06-14T03:10:45;8.18;;;4.93;;
31836;SDS011;18401;49.344;6.240;2023-06-14T03:13:15;10.15;;;5.10;;
31836;SDS011;18401;49.344;6.240;2023-06-14T03:15:41;11.70;;;5.15;;
31836;SDS011;18401;49.344;6.240;2023-06-14T03:18:08;5.60;;;4.50;;
31836;SDS011;18401;49.344;6.240;2023-06-14T03:20:35;7.40;;;4.78;;
31836;SDS011;18401;49.344;6.240;2023-06-14T03:23:01;6.93;;;4.72;;
31836;SDS011;18401;49.344;6.240;2023-06-14T03:25:27;7.65;;;4.53;;
31836;SDS011;18401;49.344;6.240;2023-06-14T03:27:56;7.88;;;5.28;;
31836;SDS011;18401;49.344;6.240;2023-06-14T03:30:22;11.88;;;5.75;;
31836;SDS011;18401;49.344;6.240;2023-06-14T03:32:48;8.35;;;5.65;;
31836;SDS011;18401;49.344;6.240;2023-06-14T03:35:14;7.05;;;4.97;;
31836;SDS011;18401;49.344;6.240;2023-06-14T03:37:46;7.50;;;4.32;;
31836;SDS011;18401;49.344;6.240;2023-06-14T03:40:12;9.98;;;5.20;;
31836;SDS011;18401;49.344;6.240;2023-06-14T03:42:41;6.15;;;4.85;;
31836;SDS011;18401;49.344;6.240;2023-06-14T03:45:06;7.82;;;5.13;;
31836;SDS011;18401;49.344;6.240;2023-06-14T03:47:32;7.38;;;4.90;;
31836;SDS011;18401;49.344;6.240;2023-06-14T03:49:59;7.28;;;5.18;;
31836;SDS011;18401;49.344;6.240;2023-06-14T03:52:26;8.98;;;4.40;;
31836;SDS011;18401;49.344;6.240;2023-06-14T03:54:52;6.60;;;5.10;;
31836;SDS011;18401;49.344;6.240;2023-06-14T03:57:18;9.23;;;4.55;;
31836;SDS011;18401;49.344;6.240;2023-06-14T03:59:45;6.13;;;4.68;;
31836;SDS011;18401;49.344;6.240;2023-06-14T04:02:11;9.05;;;5.78;;
31836;SDS011;18401;49.344;6.240;2023-06-14T04:04:40;7.65;;;5.15;;
31836;SDS011;18401;49.344;6.240;2023-06-14T04:07:09;19.80;;;9.60;;
31836;SDS011;18401;49.344;6.240;2023-06-14T04:09:35;8.55;;;5.85;;
31836;SDS011;18401;49.344;6.240;2023-06-14T04:12:00;6.68;;;5.47;;
31836;SDS011;18401;49.344;6.240;2023-06-14T04:14:26;7.25;;;4.82;;
31836;SDS011;18401;49.344;6.240;2023-06-14T04:16:51;6.25;;;4.53;;
31836;SDS011;18401;49.344;6.240;2023-06-14T04:19:17;7.13;;;4.65;;
31836;SDS011;18401;49.344;6.240;2023-06-14T04:21:43;12.13;;;4.47;;
31836;SDS011;18401;49.344;6.240;2023-06-14T04:24:08;6.65;;;4.93;;
31836;SDS011;18401;49.344;6.240;2023-06-14T04:26:44;8.05;;;5.47;;
31836;SDS011;18401;49.344;6.240;2023-06-14T04:29:13;7.95;;;5.05;;
31836;SDS011;18401;49.344;6.240;2023-06-14T04:31:41;6.82;;;5.32;;
31836;SDS011;18401;49.344;6.240;2023-06-14T04:34:07;5.95;;;4.65;;
31836;SDS011;18401;49.344;6.240;2023-06-14T04:36:33;6.53;;;4.78;;
31836;SDS011;18401;49.344;6.240;2023-06-14T04:39:02;4.95;;;4.43;;
31836;SDS011;18401;49.344;6.240;2023-06-14T04:41:32;7.03;;;4.93;;
31836;SDS011;18401;49.344;6.240;2023-06-14T04:43:57;7.50;;;4.80;;
31836;SDS011;18401;49.344;6.240;2023-06-14T04:46:29;5.55;;;4.70;;
31836;SDS011;18401;49.344;6.240;2023-06-14T04:48:57;5.65;;;4.35;;
31836;SDS011;18401;49.344;6.240;2023-06-14T04:51:23;7.05;;;5.35;;
31836;SDS011;18401;49.344;6.240;2023-06-14T04:53:55;5.82;;;4.50;;
31836;SDS011;18401;49.344;6.240;2023-06-14T04:56:23;7.07;;;5.07;;
31836;SDS011;18401;49.344;6.240;2023-06-14T04:58:51;7.55;;;5.00;;
31836;SDS011;18401;49.344;6.240;2023-06-14T05:01:18;8.98;;;5.35;;
31836;SDS011;18401;49.344;6.240;2023-06-14T05:03:46;6.78;;;4.82;;
31836;SDS011;18401;49.344;6.240;2023-06-14T05:06:14;7.82;;;4.88;;
31836;SDS011;18401;49.344;6.240;2023-06-14T05:08:40;12.40;;;4.90;;
31836;SDS011;18401;49.344;6.240;2023-06-14T05:11:06;7.13;;;5.13;;
31836;SDS011;18401;49.344;6.240;2023-06-14T05:13:32;6.30;;;4.95;;
31836;SDS011;18401;49.344;6.240;2023-06-14T05:15:58;6.38;;;4.47;;
31836;SDS011;18401;49.344;6.240;2023-06-14T05:18:24;10.15;;;4.75;;
31836;SDS011;18401;49.344;6.240;2023-06-14T05:20:50;6.18;;;5.28;;
31836;SDS011;18401;49.344;6.240;2023-06-14T05:23:16;8.48;;;5.28;;
31836;SDS011;18401;49.344;6.240;2023-06-14T05:25:42;5.40;;;4.30;;
31836;SDS011;18401;49.344;6.240;2023-06-14T05:28:08;5.55;;;4.28;;
31836;SDS011;18401;49.344;6.240;2023-06-14T05:30:34;11.15;;;4.60;;
31836;SDS011;18401;49.344;6.240;2023-06-14T05:33:00;8.20;;;4.90;;
31836;SDS011;18401;49.344;6.240;2023-06-14T05:35:26;7.45;;;4.43;;
31836;SDS011;18401;49.344;6.240;2023-06-14T05:37:52;7.72;;;4.15;;
31836;SDS011;18401;49.344;6.240;2023-06-14T05:40:18;9.63;;;4.35;;
31836;SDS011;18401;49.344;6.240;2023-06-14T05:42:45;7.45;;;4.65;;
31836;SDS011;18401;49.344;6.240;2023-06-14T05:45:10;9.43;;;4.10;;
31836;SDS011;18401;49.344;6.240;2023-06-14T05:47:36;9.88;;;4.75;;
31836;SDS011;18401;49.344;6.240;2023-06-14T05:50:02;8.73;;;3.97;;
31836;SDS011;18401;49.344;6.240;2023-06-14T05:52:28;7.25;;;3.92;;
31836;SDS011;18401;49.344;6.240;2023-06-14T05:54:54;11.73;;;3.92;;
31836;SDS011;18401;49.344;6.240;2023-06-14T05:57:20;8.48;;;4.45;;
31836;SDS011;18401;49.344;6.240;2023-06-14T05:59:46;8.25;;;3.80;;
31836;SDS011;18401;49.344;6.240;2023-06-14T06:02:12;4.95;;;3.47;;
31836;SDS011;18401;49.344;6.240;2023-06-14T06:04:37;6.50;;;3.83;;
31836;SDS011;18401;49.344;6.240;2023-06-14T06:07:03;5.97;;;3.15;;
31836;SDS011;18401;49.344;6.240;2023-06-14T06:09:29;7.28;;;3.75;;
31836;SDS011;18401;49.344;6.240;2023-06-14T06:11:55;6.10;;;3.70;;
31836;SDS011;18401;49.344;6.240;2023-06-14T06:14:20;5.22;;;3.83;;
31836;SDS011;18401;49.344;6.240;2023-06-14T06:16:46;10.80;;;3.75;;
31836;SDS011;18401;49.344;6.240;2023-06-14T06:19:12;8.73;;;3.75;;
31836;SDS011;18401;49.344;6.240;2023-06-14T06:21:38;7.30;;;3.63;;
31836;SDS011;18401;49.344;6.240;2023-06-14T06:24:04;5.53;;;3.20;;
31836;SDS011;18401;49.344;6.240;2023-06-14T06:26:31;6.15;;;3.75;;
31836;SDS011;18401;49.344;6.240;2023-06-14T06:28:57;8.35;;;3.50;;
31836;SDS011;18401;49.344;6.240;2023-06-14T06:31:23;4.13;;;3.38;;
31836;SDS011;18401;49.344;6.240;2023-06-14T06:33:49;7.47;;;3.35;;
31836;SDS011;18401;49.344;6.240;2023-06-14T06:36:15;8.35;;;3.45;;
31836;SDS011;18401;49.344;6.240;2023-06-14T06:38:41;5.80;;;3.85;;
31836;SDS011;18401;49.344;6.240;2023-06-14T06:41:07;5.53;;;3.92;;
31836;SDS011;18401;49.344;6.240;2023-06-14T06:43:32;3.95;;;3.20;;
31836;SDS011;18401;49.344;6.240;2023-06-14T06:45:58;3.83;;;3.25;;
31836;SDS011;18401;49.344;6.240;2023-06-14T06:48:23;8.20;;;3.50;;
31836;SDS011;18401;49.344;6.240;2023-06-14T06:50:49;7.35;;;3.40;;
31836;SDS011;18401;49.344;6.240;2023-06-14T06:53:16;10.93;;;3.78;;
31836;SDS011;18401;49.344;6.240;2023-06-14T06:55:43;10.52;;;3.28;;
31836;SDS011;18401;49.344;6.240;2023-06-14T06:58:09;5.30;;;3.33;;
31836;SDS011;18401;49.344;6.240;2023-06-14T07:00:35;5.47;;;3.42;;
31836;SDS011;18401;49.344;6.240;2023-06-14T07:03:01;5.68;;;3.55;;
31836;SDS011;18401;49.344;6.240;2023-06-14T07:05:28;4.55;;;3.28;;
31836;SDS011;18401;49.344;6.240;2023-06-14T07:07:54;6.95;;;3.60;;
31836;SDS011;18401;49.344;6.240;2023-06-14T07:10:21;6.22;;;3.67;;
31836;SDS011;18401;49.344;6.240;2023-06-14T07:12:46;5.68;;;3.10;;
31836;SDS011;18401;49.344;6.240;2023-06-14T07:15:12;7.15;;;3.75;;
31836;SDS011;18401;49.344;6.240;2023-06-14T07:17:38;7.15;;;3.05;;
31836;SDS011;18401;49.344;6.240;2023-06-14T07:20:04;4.45;;;3.20;;
31836;SDS011;18401;49.344;6.240;2023-06-14T07:22:34;12.77;;;3.97;;
31836;SDS011;18401;49.344;6.240;2023-06-14T07:24:59;10.20;;;3.42;;
31836;SDS011;18401;49.344;6.240;2023-06-14T07:27:25;4.95;;;3.30;;
31836;SDS011;18401;49.344;6.240;2023-06-14T07:29:51;5.85;;;3.47;;
31836;SDS011;18401;49.344;6.240;2023-06-14T07:32:16;13.63;;;3.63;;
31836;SDS011;18401;49.344;6.240;2023-06-14T07:34:42;5.63;;;3.33;;
31836;SDS011;18401;49.344;6.240;2023-06-14T07:37:08;12.15;;;3.70;;
31836;SDS011;18401;49.344;6.240;2023-06-14T07:39:33;4.68;;;3.33;;
31836;SDS011;18401;49.344;6.240;2023-06-14T07:41:59;5.25;;;3.38;;
31836;SDS011;18401;49.344;6.240;2023-06-14T07:44:27;6.55;;;3.28;;
31836;SDS011;18401;49.344;6.240;2023-06-14T07:46:55;4.05;;;3.08;;
31836;SDS011;18401;49.344;6.240;2023-06-14T07:49:23;6.57;;;3.63;;
31836;SDS011;18401;49.344;6.240;2023-06-14T07:51:49;5.43;;;3.88;;
31836;SDS011;18401;49.344;6.240;2023-06-14T07:54:16;6.18;;;3.58;;
31836;SDS011;18401;49.344;6.240;2023-06-14T07:56:42;7.35;;;3.67;;
31836;SDS011;18401;49.344;6.240;2023-06-14T07:59:08;8.35;;;3.45;;
31836;SDS011;18401;49.344;6.240;2023-06-14T08:01:34;6.88;;;3.30;;
31836;SDS011;18401;49.344;6.240;2023-06-14T08:04:00;7.28;;;3.30;;
31836;SDS011;18401;49.344;6.240;2023-06-14T08:06:26;5.55;;;2.95;;
31836;SDS011;18401;49.344;6.240;2023-06-14T08:08:52;5.43;;;3.58;;
31836;SDS011;18401;49.344;6.240;2023-06-14T08:11:18;9.05;;;3.30;;
31836;SDS011;18401;49.344;6.240;2023-06-14T08:13:44;5.65;;;3.10;;
31836;SDS011;18401;49.344;6.240;2023-06-14T08:16:09;4.88;;;3.08;;
31836;SDS011;18401;49.344;6.240;2023-06-14T08:18:35;5.63;;;3.35;;
31836;SDS011;18401;49.344;6.240;2023-06-14T08:21:01;8.85;;;3.13;;
31836;SDS011;18401;49.344;6.240;2023-06-14T08:23:28;4.20;;;3.30;;
31836;SDS011;18401;49.344;6.240;2023-06-14T08:25:54;12.43;;;3.30;;
31836;SDS011;18401;49.344;6.240;2023-06-14T08:28:20;13.40;;;3.67;;
31836;SDS011;18401;49.344;6.240;2023-06-14T08:30:46;10.10;;;3.40;;
31836;SDS011;18401;49.344;6.240;2023-06-14T08:33:11;17.33;;;3.50;;
31836;SDS011;18401;49.344;6.240;2023-06-14T08:35:37;8.68;;;3.67;;
31836;SDS011;18401;49.344;6.240;2023-06-14T08:38:04;6.75;;;3.10;;
31836;SDS011;18401;49.344;6.240;2023-06-14T08:40:30;6.25;;;2.85;;
31836;SDS011;18401;49.344;6.240;2023-06-14T08:42:56;5.60;;;3.33;;
31836;SDS011;18401;49.344;6.240;2023-06-14T08:45:22;10.88;;;3.40;;
31836;SDS011;18401;49.344;6.240;2023-06-14T08:47:50;8.13;;;3.50;;
31836;SDS011;18401;49.344;6.240;2023-06-14T08:50:18;7.40;;;3.13;;
31836;SDS011;18401;49.344;6.240;2023-06-14T08:52:45;6.50;;;3.13;;
31836;SDS011;18401;49.344;6.240;2023-06-14T08:55:17;15.45;;;4.30;;
31836;SDS011;18401;49.344;6.240;2023-06-14T08:57:45;6.10;;;2.85;;
31836;SDS011;18401;49.344;6.240;2023-06-14T09:00:13;10.02;;;3.17;;
31836;SDS011;18401;49.344;6.240;2023-06-14T09:02:39;18.85;;;4.53;;
31836;SDS011;18401;49.344;6.240;2023-06-14T09:05:11;16.13;;;3.33;;
31836;SDS011;18401;49.344;6.240;2023-06-14T09:07:43;11.57;;;3.67;;
31836;SDS011;18401;49.344;6.240;2023-06-14T09:10:13;3.10;;;2.80;;
31836;SDS011;18401;49.344;6.240;2023-06-14T09:12:40;5.68;;;2.70;;
31836;SDS011;18401;49.344;6.240;2023-06-14T09:15:06;5.00;;;3.10;;
31836;SDS011;18401;49.344;6.240;2023-06-14T09:17:34;6.47;;;3.35;;
31836;SDS011;18401;49.344;6.240;2023-06-14T09:20:03;3.95;;;3.03;;
31836;SDS011;18401;49.344;6.240;2023-06-14T09:22:31;10.88;;;2.95;;
31836;SDS011;18401;49.344;6.240;2023-06-14T09:24:57;4.07;;;2.72;;
31836;SDS011;18401;49.344;6.240;2023-06-14T09:27:25;5.65;;;3.03;;
31836;SDS011;18401;49.344;6.240;2023-06-14T09:29:51;4.60;;;3.15;;
31836;SDS011;18401;49.344;6.240;2023-06-14T09:32:17;4.70;;;3.20;;
31836;SDS011;18401;49.344;6.240;2023-06-14T09:34:43;7.55;;;3.17;;
31836;SDS011;18401;49.344;6.240;2023-06-14T09:37:10;7.75;;;2.67;;
31836;SDS011;18401;49.344;6.240;2023-06-14T09:39:48;4.57;;;3.00;;
31836;SDS011;18401;49.344;6.240;2023-06-14T09:42:17;11.93;;;2.83;;
31836;SDS011;18401;49.344;6.240;2023-06-14T09:44:47;5.07;;;2.90;;
31836;SDS011;18401;49.344;6.240;2023-06-14T09:47:14;5.47;;;3.15;;
31836;SDS011;18401;49.344;6.240;2023-06-14T09:49:41;8.25;;;2.97;;
31836;SDS011;18401;49.344;6.240;2023-06-14T09:52:10;3.95;;;2.53;;
31836;SDS011;18401;49.344;6.240;2023-06-14T09:54:43;6.78;;;2.95;;
31836;SDS011;18401;49.344;6.240;2023-06-14T09:57:11;5.20;;;3.20;;
31836;SDS011;18401;49.344;6.240;2023-06-14T09:59:42;7.80;;;2.92;;
31836;SDS011;18401;49.344;6.240;2023-06-14T10:02:11;7.28;;;3.35;;
31836;SDS011;18401;49.344;6.240;2023-06-14T10:04:46;3.97;;;2.63;;
31836;SDS011;18401;49.344;6.240;2023-06-14T10:07:17;3.83;;;2.58;;
31836;SDS011;18401;49.344;6.240;2023-06-14T10:09:46;4.45;;;2.45;;
31836;SDS011;18401;49.344;6.240;2023-06-14T10:12:15;4.97;;;2.95;;
31836;SDS011;18401;49.344;6.240;2023-06-14T10:14:46;5.97;;;2.90;;
31836;SDS011;18401;49.344;6.240;2023-06-14T10:17:17;9.98;;;3.47;;
31836;SDS011;18401;49.344;6.240;2023-06-14T10:20:16;7.35;;;3.13;;
31836;SDS011;18401;49.344;6.240;2023-06-14T10:22:47;4.43;;;2.80;;
31836;SDS011;18401;49.344;6.240;2023-06-14T10:25:28;7.00;;;2.70;;
31836;SDS011;18401;49.344;6.240;2023-06-14T10:33:29;6.15;;;2.60;;
31836;SDS011;18401;49.344;6.240;2023-06-14T10:38:59;3.97;;;2.35;;
31836;SDS011;18401;49.344;6.240;2023-06-14T10:41:28;4.72;;;2.47;;
31836;SDS011;18401;49.344;6.240;2023-06-14T10:44:10;14.15;;;2.60;;
31836;SDS011;18401;49.344;6.240;2023-06-14T10:46:39;11.25;;;2.72;;
31836;SDS011;18401;49.344;6.240;2023-06-14T10:49:06;5.72;;;2.30;;
31836;SDS011;18401;49.344;6.240;2023-06-14T10:51:44;5.47;;;2.78;;
31836;SDS011;18401;49.344;6.240;2023-06-14T10:54:22;4.53;;;2.42;;
31836;SDS011;18401;49.344;6.240;2023-06-14T10:56:49;7.80;;;2.53;;
31836;SDS011;18401;49.344;6.240;2023-06-14T10:59:16;7.57;;;2.10;;
31836;SDS011;18401;49.344;6.240;2023-06-14T11:12:34;7.63;;;2.35;;
31836;SDS011;18401;49.344;6.240;2023-06-14T11:15:01;5.53;;;2.30;;
31836;SDS011;18401;49.344;6.240;2023-06-14T11:17:27;7.47;;;2.75;;
31836;SDS011;18401;49.344;6.240;2023-06-14T11:20:07;5.20;;;2.40;;
31836;SDS011;18401;49.344;6.240;2023-06-14T11:22:44;6.10;;;2.13;;
31836;SDS011;18401;49.344;6.240;2023-06-14T11:25:13;5.45;;;2.28;;
31836;SDS011;18401;49.344;6.240;2023-06-14T11:27:41;11.85;;;2.35;;
31836;SDS011;18401;49.344;6.240;2023-06-14T11:30:08;4.35;;;2.25;;
31836;SDS011;18401;49.344;6.240;2023-06-14T11:32:35;7.35;;;2.55;;
31836;SDS011;18401;49.344;6.240;2023-06-14T11:35:03;9.60;;;2.55;;
31836;SDS011;18401;49.344;6.240;2023-06-14T11:37:32;9.20;;;2.38;;
31836;SDS011;18401;49.344;6.240;2023-06-14T11:39:58;8.52;;;2.33;;
31836;SDS011;18401;49.344;6.240;2023-06-14T11:42:33;7.90;;;2.58;;
31836;SDS011;18401;49.344;6.240;2023-06-14T11:44:59;6.47;;;2.42;;
31836;SDS011;18401;49.344;6.240;2023-06-14T11:47:24;4.85;;;2.42;;
31836;SDS011;18401;49.344;6.240;2023-06-14T11:49:58;6.82;;;2.58;;
31836;SDS011;18401;49.344;6.240;2023-06-14T11:52:24;6.45;;;2.50;;
31836;SDS011;18401;49.344;6.240;2023-06-14T11:54:50;6.85;;;2.53;;
31836;SDS011;18401;49.344;6.240;2023-06-14T11:57:17;6.20;;;2.63;;
31836;SDS011;18401;49.344;6.240;2023-06-14T11:59:43;6.65;;;2.33;;
31836;SDS011;18401;49.344;6.240;2023-06-14T12:02:13;4.53;;;2.05;;
31836;SDS011;18401;49.344;6.240;2023-06-14T12:04:44;4.43;;;2.38;;
31836;SDS011;18401;49.344;6.240;2023-06-14T12:07:12;3.25;;;2.28;;
31836;SDS011;18401;49.344;6.240;2023-06-14T12:12:22;3.15;;;2.15;;
31836;SDS011;18401;49.344;6.240;2023-06-14T12:14:50;3.70;;;1.88;;
31836;SDS011;18401;49.344;6.240;2023-06-14T12:17:17;4.95;;;2.08;;
31836;SDS011;18401;49.344;6.240;2023-06-14T12:19:44;2.63;;;1.90;;
31836;SDS011;18401;49.344;6.240;2023-06-14T12:22:11;2.47;;;2.20;;
31836;SDS011;18401;49.344;6.240;2023-06-14T12:24:43;2.13;;;1.92;;
31836;SDS011;18401;49.344;6.240;2023-06-14T12:27:10;10.48;;;2.05;;
31836;SDS011;18401;49.344;6.240;2023-06-14T12:29:41;5.43;;;2.38;;
31836;SDS011;18401;49.344;6.240;2023-06-14T12:32:10;4.82;;;1.73;;
31836;SDS011;18401;49.344;6.240;2023-06-14T12:34:36;10.80;;;1.90;;
31836;SDS011;18401;49.344;6.240;2023-06-14T12:37:02;6.60;;;1.83;;
31836;SDS011;18401;49.344;6.240;2023-06-14T12:39:31;8.20;;;2.33;;
31836;SDS011;18401;49.344;6.240;2023-06-14T12:41:57;3.17;;;1.75;;
31836;SDS011;18401;49.344;6.240;2023-06-14T12:44:24;6.93;;;1.98;;
31836;SDS011;18401;49.344;6.240;2023-06-14T12:46:50;6.82;;;1.73;;
31836;SDS011;18401;49.344;6.240;2023-06-14T12:49:18;7.65;;;2.08;;
31836;SDS011;18401;49.344;6.240;2023-06-14T12:51:45;4.47;;;2.00;;
31836;SDS011;18401;49.344;6.240;2023-06-14T12:54:10;2.03;;;1.75;;
31836;SDS011;18401;49.344;6.240;2023-06-14T12:56:37;7.28;;;1.85;;
31836;SDS011;18401;49.344;6.240;2023-06-14T12:59:03;3.38;;;1.75;;
31836;SDS011;18401;49.344;6.240;2023-06-14T13:01:28;3.20;;;1.83;;
31836;SDS011;18401;49.344;6.240;2023-06-14T13:03:54;4.85;;;1.70;;
31836;SDS011;18401;49.344;6.240;2023-06-14T13:06:21;5.10;;;1.92;;
31836;SDS011;18401;49.344;6.240;2023-06-14T13:08:50;6.95;;;1.98;;
31836;SDS011;18401;49.344;6.240;2023-06-14T13:11:15;2.35;;;1.60;;
31836;SDS011;18401;49.344;6.240;2023-06-14T13:13:41;7.80;;;1.85;;
31836;SDS011;18401;49.344;6.240;2023-06-14T13:16:06;6.85;;;1.80;;
31836;SDS011;18401;49.344;6.240;2023-06-14T13:18:32;3.42;;;1.77;;
31836;SDS011;18401;49.344;6.240;2023-06-14T13:20:58;2.92;;;1.90;;
31836;SDS011;18401;49.344;6.240;2023-06-14T13:23:24;6.32;;;1.90;;
31836;SDS011;18401;49.344;6.240;2023-06-14T13:25:49;6.75;;;1.88;;
31836;SDS011;18401;49.344;6.240;2023-06-14T13:28:16;5.63;;;1.75;;
31836;SDS011;18401;49.344;6.240;2023-06-14T13:30:42;5.50;;;1.73;;
31836;SDS011;18401;49.344;6.240;2023-06-14T13:33:07;11.63;;;2.13;;
31836;SDS011;18401;49.344;6.240;2023-06-14T13:35:33;4.50;;;1.83;;
31836;SDS011;18401;49.344;6.240;2023-06-14T13:37:59;7.18;;;2.00;;
31836;SDS011;18401;49.344;6.240;2023-06-14T13:40:25;3.38;;;2.10;;
31836;SDS011;18401;49.344;6.240;2023-06-14T13:42:51;2.83;;;2.00;;
31836;SDS011;18401;49.344;6.240;2023-06-14T13:45:16;10.95;;;3.80;;
31836;SDS011;18401;49.344;6.240;2023-06-14T13:47:42;5.53;;;1.90;;
31836;SDS011;18401;49.344;6.240;2023-06-14T13:50:08;2.15;;;1.90;;
31836;SDS011;18401;49.344;6.240;2023-06-14T13:52:34;5.13;;;1.60;;
31836;SDS011;18401;49.344;6.240;2023-06-14T13:55:00;2.17;;;1.77;;
31836;SDS011;18401;49.344;6.240;2023-06-14T13:57:26;4.25;;;1.98;;
31836;SDS011;18401;49.344;6.240;2023-06-14T13:59:51;6.65;;;1.80;;
31836;SDS011;18401;49.344;6.240;2023-06-14T14:02:20;6.25;;;1.92;;
31836;SDS011;18401;49.344;6.240;2023-06-14T14:04:46;3.03;;;1.80;;
31836;SDS011;18401;49.344;6.240;2023-06-14T14:07:17;7.63;;;2.10;;
31836;SDS011;18401;49.344;6.240;2023-06-14T14:09:44;6.97;;;1.88;;
31836;SDS011;18401;49.344;6.240;2023-06-14T14:12:09;8.65;;;2.10;;
31836;SDS011;18401;49.344;6.240;2023-06-14T14:14:36;6.78;;;2.20;;
31836;SDS011;18401;49.344;6.240;2023-06-14T14:17:02;4.40;;;1.90;;
31836;SDS011;18401;49.344;6.240;2023-06-14T14:19:27;3.75;;;1.77;;
31836;SDS011;18401;49.344;6.240;2023-06-14T14:21:53;4.85;;;1.67;;
31836;SDS011;18401;49.344;6.240;2023-06-14T14:24:19;11.90;;;2.47;;
31836;SDS011;18401;49.344;6.240;2023-06-14T14:26:45;3.47;;;2.00;;
31836;SDS011;18401;49.344;6.240;2023-06-14T14:29:13;6.00;;;2.05;;
31836;SDS011;18401;49.344;6.240;2023-06-14T14:31:39;7.22;;;1.80;;
31836;SDS011;18401;49.344;6.240;2023-06-14T14:34:05;5.78;;;2.00;;
31836;SDS011;18401;49.344;6.240;2023-06-14T14:36:30;5.13;;;2.05;;
31836;SDS011;18401;49.344;6.240;2023-06-14T14:38:58;8.98;;;1.95;;
31836;SDS011;18401;49.344;6.240;2023-06-14T14:41:24;4.10;;;1.98;;
31836;SDS011;18401;49.344;6.240;2023-06-14T14:43:50;2.53;;;1.60;;
31836;SDS011;18401;49.344;6.240;2023-06-14T14:46:15;5.57;;;1.90;;
31836;SDS011;18401;49.344;6.240;2023-06-14T14:48:41;10.50;;;1.98;;
31836;SDS011;18401;49.344;6.240;2023-06-14T14:51:07;2.80;;;1.80;;
31836;SDS011;18401;49.344;6.240;2023-06-14T14:53:33;7.93;;;2.38;;
31836;SDS011;18401;49.344;6.240;2023-06-14T14:55:59;2.17;;;1.60;;
31836;SDS011;18401;49.344;6.240;2023-06-14T14:58:25;4.10;;;2.28;;
31836;SDS011;18401;49.344;6.240;2023-06-14T15:00:51;3.42;;;1.88;;
31836;SDS011;18401;49.344;6.240;2023-06-14T15:03:16;4.78;;;1.60;;
31836;SDS011;18401;49.344;6.240;2023-06-14T15:05:42;5.20;;;2.00;;
31836;SDS011;18401;49.344;6.240;2023-06-14T15:08:08;8.20;;;1.83;;
31836;SDS011;18401;49.344;6.240;2023-06-14T15:10:37;3.17;;;2.08;;
31836;SDS011;18401;49.344;6.240;2023-06-14T15:13:06;7.72;;;2.08;;